Time;durP1;ratioP1;P1;durP2;ratioP2;P2;SDS_P1;SDS_P2;PMS_P1;PMS_P2;Temp;Humidity;BMP_temperature;BMP_pressure;BME280_temperature;BME280_humidity;BME280_pressure;Samples;Min_cycle;Max_cycle;Signal;HPM_P1;HPM_P2
2024/01/22 00:02:10;;;;;;;14.25;5.28;;;6.30;99.90;;;;;;5006907;28;20038;-86
2024/01/22 00:04:36;;;;;;;12.15;4.97;;;6.40;99.90;;;;;;5030018;28;20060;-85
2024/01/22 00:07:03;;;;;;;13.57;5.10;;;6.50;99.90;;;;;;5020783;28;20558;-85
2024/01/22 00:09:28;;;;;;;11.45;5.32;;;6.40;99.90;;;;;;5026378;28;20049;-85
2024/01/22 00:11:54;;;;;;;10.52;4.82;;;6.40;99.90;;;;;;5022138;28;20046;-85
2024/01/22 00:14:19;;;;;;;12.35;4.88;;;6.40;99.90;;;;;;5019501;28;20072;-87
2024/01/22 00:16:48;;;;;;;14.57;5.43;;;6.40;99.90;;;;;;5026296;28;20044;-86
2024/01/22 00:19:16;;;;;;;9.15;4.57;;;6.80;99.90;;;;;;5026901;28;20509;-86
2024/01/22 00:21:45;;;;;;;11.05;5.20;;;6.50;99.90;;;;;;5023000;28;20072;-86
2024/01/22 00:24:11;;;;;;;14.82;5.70;;;6.50;99.90;;;;;;5025861;28;20513;-84
2024/01/22 00:26:37;;;;;;;11.38;5.82;;;6.60;99.90;;;;;;5008000;28;20053;-86
2024/01/22 00:29:03;;;;;;;12.60;4.75;;;6.50;99.90;;;;;;5003300;28;20122;-86
2024/01/22 00:31:29;;;;;;;13.05;4.95;;;6.50;99.90;;;;;;5025874;28;20076;-86
2024/01/22 00:33:54;;;;;;;10.98;5.63;;;6.50;99.90;;;;;;5016100;28;20049;-87
2024/01/22 00:36:20;;;;;;;8.77;4.50;;;6.50;99.90;;;;;;5014047;28;20057;-86
2024/01/22 00:38:46;;;;;;;11.15;5.47;;;6.50;99.90;;;;;;5013397;28;20056;-86
2024/01/22 00:41:14;;;;;;;13.15;4.80;;;6.60;99.90;;;;;;5026964;28;20041;-87
2024/01/22 00:43:40;;;;;;;8.65;5.05;;;6.60;99.90;;;;;;5023197;28;20033;-85
2024/01/22 00:46:05;;;;;;;9.45;4.55;;;7.10;99.90;;;;;;5016028;28;20045;-87
2024/01/22 00:48:32;;;;;;;12.05;4.72;;;6.60;99.90;;;;;;5002295;28;20110;-83
2024/01/22 00:50:58;;;;;;;11.05;4.93;;;6.70;99.90;;;;;;5008954;28;20103;-86
2024/01/22 00:53:24;;;;;;;11.02;5.20;;;6.70;99.90;;;;;;5013545;28;20050;-85
2024/01/22 00:55:49;;;;;;;10.60;5.30;;;6.70;99.90;;;;;;5030385;28;20064;-86
2024/01/22 00:58:15;;;;;;;13.63;5.38;;;6.70;99.90;;;;;;5013699;28;20387;-86
2024/01/22 01:00:41;;;;;;;8.52;5.20;;;6.70;99.90;;;;;;5025376;28;20045;-87
2024/01/22 01:03:07;;;;;;;9.82;4.65;;;6.80;99.90;;;;;;5029250;28;20064;-88
2024/01/22 01:05:34;;;;;;;8.68;4.22;;;6.80;99.90;;;;;;5027319;28;20045;-85
2024/01/22 01:08:01;;;;;;;8.85;4.32;;;6.80;99.90;;;;;;5019566;28;20498;-86
2024/01/22 01:10:26;;;;;;;8.40;5.10;;;6.80;99.90;;;;;;5025490;28;20053;-85
2024/01/22 01:12:52;;;;;;;12.65;4.47;;;6.90;99.90;;;;;;5010319;28;20404;-86
2024/01/22 01:15:20;;;;;;;9.98;4.78;;;6.90;99.90;;;;;;5005606;28;20199;-87
2024/01/22 01:17:46;;;;;;;10.68;4.50;;;6.90;99.90;;;;;;5028515;28;20045;-84
2024/01/22 01:20:12;;;;;;;12.13;4.63;;;6.90;99.90;;;;;;5027264;28;20140;-86
2024/01/22 01:22:37;;;;;;;11.50;4.05;;;7.00;99.90;;;;;;5024214;28;20120;-87
2024/01/22 01:25:04;;;;;;;8.23;4.15;;;7.00;99.90;;;;;;4977373;28;20054;-87
2024/01/22 01:27:29;;;;;;;9.02;4.55;;;7.10;99.90;;;;;;5023572;28;20053;-86
2024/01/22 01:29:55;;;;;;;7.13;4.10;;;7.20;99.90;;;;;;4993730;28;20105;-86
2024/01/22 01:32:22;;;;;;;8.20;4.65;;;7.10;99.90;;;;;;4994049;28;20145;-87
2024/01/22 01:34:48;;;;;;;9.20;4.00;;;7.10;99.90;;;;;;5020755;28;20045;-87
2024/01/22 01:37:14;;;;;;;8.50;4.57;;;7.20;99.90;;;;;;4998418;28;20042;-86
2024/01/22 01:39:39;;;;;;;9.85;4.78;;;7.20;99.90;;;;;;5024794;28;20460;-87
2024/01/22 01:42:05;;;;;;;11.18;4.20;;;7.60;99.90;;;;;;5029568;28;20116;-87
2024/01/22 01:44:37;;;;;;;8.73;3.95;;;7.20;99.90;;;;;;5027468;28;20083;-87
2024/01/22 01:47:04;;;;;;;9.88;4.80;;;7.20;99.90;;;;;;5013120;28;20099;-87
2024/01/22 01:49:30;;;;;;;8.73;4.07;;;7.20;99.90;;;;;;5021949;28;20124;-88
2024/01/22 01:51:56;;;;;;;9.90;4.10;;;8.00;99.90;;;;;;5029361;28;20128;-87
2024/01/22 01:54:23;;;;;;;10.65;5.03;;;7.30;99.90;;;;;;5029027;28;20062;-87
2024/01/22 01:56:50;;;;;;;10.35;5.15;;;7.40;99.90;;;;;;5026623;28;20576;-86
2024/01/22 01:59:17;;;;;;;10.57;4.25;;;7.50;99.90;;;;;;5029006;28;20052;-86
2024/01/22 02:01:42;;;;;;;10.25;4.57;;;7.40;99.90;;;;;;5027188;28;20092;-86
2024/01/22 02:04:08;;;;;;;7.63;4.60;;;7.50;99.90;;;;;;5027225;28;20083;-86
2024/01/22 02:06:34;;;;;;;13.32;4.97;;;7.80;99.90;;;;;;5025286;28;20038;-87
2024/01/22 02:09:00;;;;;;;11.52;4.53;;;7.50;99.90;;;;;;5012212;28;20042;-85
2024/01/22 02:11:25;;;;;;;10.63;4.82;;;7.50;99.90;;;;;;4993528;28;20052;-87
2024/01/22 02:13:52;;;;;;;7.43;4.05;;;7.50;99.90;;;;;;5020731;28;20045;-87
2024/01/22 02:16:18;;;;;;;9.30;5.13;;;7.60;99.90;;;;;;5005091;28;20045;-86
2024/01/22 02:18:45;;;;;;;10.07;4.53;;;7.60;99.90;;;;;;5012382;28;20044;-88
2024/01/22 02:21:12;;;;;;;11.38;4.75;;;7.50;99.90;;;;;;5025441;28;20038;-89
2024/01/22 02:23:37;;;;;;;8.15;4.03;;;7.90;99.90;;;;;;5027850;28;20062;-88
2024/01/22 02:26:03;;;;;;;12.50;4.53;;;7.70;99.90;;;;;;5012806;28;20060;-88
2024/01/22 02:28:32;;;;;;;10.75;4.55;;;7.50;99.90;;;;;;5012303;28;20053;-88
2024/01/22 02:30:59;;;;;;;8.73;4.45;;;8.00;99.90;;;;;;5030738;28;20136;-88
2024/01/22 02:33:25;;;;;;;11.55;4.88;;;7.50;99.90;;;;;;5029038;28;20042;-88
2024/01/22 02:35:50;;;;;;;10.30;4.40;;;7.50;99.90;;;;;;5032367;28;20042;-89
2024/01/22 02:38:16;;;;;;;7.82;3.97;;;7.60;99.90;;;;;;5012200;28;20490;-87
2024/01/22 02:40:42;;;;;;;14.13;4.65;;;7.60;99.90;;;;;;5032929;28;20098;-89
2024/01/22 02:43:08;;;;;;;9.25;4.32;;;7.70;99.90;;;;;;5005641;28;20503;-88
2024/01/22 02:45:34;;;;;;;7.45;4.32;;;7.60;99.90;;;;;;5028764;28;20045;-87
2024/01/22 02:47:59;;;;;;;10.27;4.45;;;7.60;99.90;;;;;;5033417;28;20120;-87
2024/01/22 02:50:25;;;;;;;10.02;4.50;;;7.70;99.90;;;;;;5022714;28;20046;-88
2024/01/22 02:52:50;;;;;;;10.30;4.50;;;8.20;99.90;;;;;;5021976;28;20061;-87
2024/01/22 02:55:17;;;;;;;10.55;4.07;;;7.80;99.90;;;;;;5032489;28;20061;-88
2024/01/22 02:57:42;;;;;;;9.07;3.58;;;7.80;99.90;;;;;;5026976;28;20491;-87
2024/01/22 03:00:08;;;;;;;8.63;3.72;;;7.90;99.90;;;;;;5025388;28;20045;-87
2024/01/22 03:02:35;;;;;;;11.20;4.30;;;7.90;99.90;;;;;;5030916;28;20045;-88
2024/01/22 03:05:00;;;;;;;9.40;3.78;;;8.00;99.90;;;;;;5016157;28;20459;-88
2024/01/22 03:07:26;;;;;;;7.47;4.65;;;8.10;99.90;;;;;;5015886;28;20073;-89
2024/01/22 03:09:55;;;;;;;8.23;3.90;;;8.80;99.90;;;;;;5026646;28;20084;-89
2024/01/22 03:12:21;;;;;;;7.68;4.03;;;8.00;99.90;;;;;;5020855;28;20117;-88
2024/01/22 03:14:46;;;;;;;9.63;4.35;;;8.10;99.90;;;;;;5026589;28;20124;-88
2024/01/22 03:17:12;;;;;;;8.35;4.05;;;8.10;99.90;;;;;;5031996;28;20045;-89
2024/01/22 03:19:37;;;;;;;8.98;3.85;;;8.10;99.90;;;;;;5031229;28;20207;-89
2024/01/22 03:22:06;;;;;;;6.35;3.60;;;8.10;99.90;;;;;;5030174;28;20073;-88
2024/01/22 03:24:32;;;;;;;7.30;3.70;;;8.10;99.90;;;;;;5017472;28;20106;-90
2024/01/22 03:27:01;;;;;;;8.05;4.00;;;8.10;99.90;;;;;;5011852;28;20494;-88
2024/01/22 03:29:27;;;;;;;8.27;4.32;;;8.70;99.90;;;;;;5009305;28;20061;-90
2024/01/22 03:31:53;;;;;;;7.93;3.92;;;8.10;99.90;;;;;;4997455;28;20053;-87
2024/01/22 03:34:20;;;;;;;6.82;3.78;;;8.40;99.90;;;;;;5018055;28;20063;-89
2024/01/22 03:36:47;;;;;;;8.27;4.20;;;8.10;99.90;;;;;;5013552;28;20484;-87
2024/01/22 03:39:13;;;;;;;10.32;5.32;;;8.10;99.90;;;;;;5031494;28;20418;-88
2024/01/22 03:41:39;;;;;;;8.73;4.40;;;8.10;99.90;;;;;;5030663;28;20045;-88
2024/01/22 03:44:05;;;;;;;9.77;4.18;;;8.50;99.90;;;;;;5034566;28;20057;-90
2024/01/22 03:46:35;;;;;;;9.63;4.80;;;8.10;99.90;;;;;;5036395;28;20049;-89
2024/01/22 03:49:02;;;;;;;8.75;4.55;;;8.10;99.90;;;;;;5023795;28;20065;-87
2024/01/22 03:51:29;;;;;;;8.07;5.07;;;8.10;99.90;;;;;;5030147;28;20477;-89
2024/01/22 03:53:59;;;;;;;8.18;4.43;;;8.10;99.90;;;;;;5032231;28;20128;-89
2024/01/22 03:56:25;;;;;;;7.22;3.58;;;8.10;99.90;;;;;;5031019;28;20360;-89
2024/01/22 03:58:54;;;;;;;9.68;4.63;;;8.60;99.90;;;;;;5030458;28;20049;-87
2024/01/22 04:01:24;;;;;;;7.90;4.45;;;8.20;99.90;;;;;;5029878;28;20069;-88
2024/01/22 04:03:53;;;;;;;8.48;4.43;;;8.10;99.90;;;;;;5015345;28;20041;-88
2024/01/22 04:06:26;;;;;;;11.13;4.55;;;8.10;99.90;;;;;;5018227;28;20050;-88
2024/01/22 04:09:05;;;;;;;7.93;4.07;;;8.10;99.90;;;;;;5028536;28;20056;-89
2024/01/22 04:11:33;;;;;;;6.85;3.55;;;8.10;99.90;;;;;;5024503;28;20479;-88
2024/01/22 04:14:09;;;;;;;6.05;3.53;;;8.10;99.90;;;;;;5013562;28;20058;-88
2024/01/22 04:16:34;;;;;;;6.35;4.20;;;8.20;99.90;;;;;;5003342;28;20045;-88
2024/01/22 04:19:01;;;;;;;7.10;3.97;;;8.20;99.90;;;;;;5022200;28;20483;-90
2024/01/22 04:21:27;;;;;;;8.82;4.13;;;8.20;99.90;;;;;;5027590;28;20044;-87
2024/01/22 04:23:53;;;;;;;7.13;3.92;;;8.20;99.90;;;;;;5028083;28;20053;-88
2024/01/22 04:26:19;;;;;;;8.75;4.00;;;8.20;99.90;;;;;;5030521;28;20108;-88
2024/01/22 04:28:45;;;;;;;7.47;3.38;;;8.30;99.90;;;;;;5030747;28;20061;-88
2024/01/22 04:31:11;;;;;;;6.38;3.47;;;8.30;99.90;;;;;;5011841;28;20104;-89
2024/01/22 04:33:37;;;;;;;6.53;4.05;;;8.40;99.90;;;;;;5029332;28;20053;-89
2024/01/22 04:36:03;;;;;;;6.70;3.47;;;8.40;99.90;;;;;;5030736;28;20160;-87
2024/01/22 04:38:30;;;;;;;6.82;3.83;;;8.30;99.90;;;;;;5028476;28;20046;-86
2024/01/22 04:40:56;;;;;;;7.22;3.38;;;8.30;99.90;;;;;;5027911;28;20045;-88
2024/01/22 04:43:23;;;;;;;7.85;3.85;;;8.40;99.90;;;;;;5028472;28;20147;-88
2024/01/22 04:45:49;;;;;;;8.80;4.07;;;8.40;99.90;;;;;;5028003;28;20646;-88
2024/01/22 04:48:14;;;;;;;7.45;3.63;;;8.50;99.90;;;;;;5006545;28;20041;-87
2024/01/22 04:50:40;;;;;;;6.38;3.03;;;8.60;99.90;;;;;;5024506;28;20403;-88
2024/01/22 04:53:06;;;;;;;7.15;3.47;;;8.90;99.90;;;;;;5027643;28;20107;-87
2024/01/22 04:55:32;;;;;;;7.25;3.35;;;8.50;99.90;;;;;;5026381;28;20077;-87
2024/01/22 04:57:57;;;;;;;7.60;3.47;;;8.60;99.90;;;;;;5025333;28;20133;-87
2024/01/22 05:00:23;;;;;;;7.00;3.60;;;8.60;99.90;;;;;;5023612;28;20553;-86
2024/01/22 05:02:49;;;;;;;7.00;3.50;;;8.90;99.90;;;;;;5006817;28;20064;-86
2024/01/22 05:05:15;;;;;;;8.10;3.72;;;8.60;99.90;;;;;;5031269;28;20041;-88
2024/01/22 05:07:41;;;;;;;6.38;3.40;;;9.00;99.90;;;;;;5029988;28;20052;-86
2024/01/22 05:10:13;;;;;;;6.60;3.88;;;8.60;99.90;;;;;;5031089;28;20057;-88
2024/01/22 05:12:39;;;;;;;6.97;3.20;;;8.70;99.90;;;;;;5029742;28;20075;-87
2024/01/22 05:15:05;;;;;;;11.48;3.92;;;8.70;99.90;;;;;;5018161;28;20156;-88
2024/01/22 05:17:32;;;;;;;7.28;3.67;;;8.70;99.90;;;;;;5010011;28;20064;-87
2024/01/22 05:19:58;;;;;;;6.40;3.78;;;8.70;99.90;;;;;;5029896;28;20053;-87
2024/01/22 05:22:24;;;;;;;8.35;3.65;;;9.20;99.90;;;;;;5024013;28;20080;-87
2024/01/22 05:24:50;;;;;;;5.95;3.80;;;8.80;99.90;;;;;;5010788;28;20093;-87
2024/01/22 05:27:16;;;;;;;6.75;3.72;;;8.80;99.90;;;;;;5013980;28;20042;-87
2024/01/22 05:29:43;;;;;;;6.72;3.65;;;8.80;99.90;;;;;;5018978;28;20106;-87
2024/01/22 05:32:09;;;;;;;6.82;3.20;;;9.60;99.90;;;;;;5030562;28;20099;-87
2024/01/22 05:34:35;;;;;;;5.63;3.63;;;8.90;99.90;;;;;;5031220;28;20453;-87
2024/01/22 05:37:01;;;;;;;4.88;3.17;;;9.00;99.90;;;;;;5027863;28;20053;-87
2024/01/22 05:39:27;;;;;;;6.78;3.13;;;9.80;99.90;;;;;;5019796;28;20095;-87
2024/01/22 05:41:54;;;;;;;5.80;3.05;;;9.00;99.90;;;;;;5027912;28;20049;-87
2024/01/22 05:44:25;;;;;;;5.18;3.42;;;9.60;99.90;;;;;;5020365;28;20059;-87
2024/01/22 05:46:50;;;;;;;6.65;2.55;;;9.20;99.90;;;;;;5020775;28;20056;-86
2024/01/22 05:49:18;;;;;;;5.45;2.75;;;9.30;99.90;;;;;;5021638;28;20041;-87
2024/01/22 05:51:45;;;;;;;4.80;2.42;;;9.20;99.90;;;;;;5005442;28;20060;-87
2024/01/22 05:54:15;;;;;;;5.32;2.65;;;9.30;99.90;;;;;;5023493;28;20124;-88
2024/01/22 05:56:41;;;;;;;4.80;2.30;;;9.50;99.90;;;;;;5021277;28;20076;-83
2024/01/22 05:59:07;;;;;;;4.68;2.40;;;9.40;99.90;;;;;;5024505;28;20144;-84
2024/01/22 06:01:34;;;;;;;4.43;2.20;;;9.40;99.90;;;;;;5017324;28;20421;-84
2024/01/22 06:04:00;;;;;;;4.13;2.10;;;9.40;99.90;;;;;;5006681;28;20042;-86
2024/01/22 06:06:26;;;;;;;3.28;1.35;;;9.50;99.90;;;;;;5025605;28;20121;-86
2024/01/22 06:08:59;;;;;;;8.00;1.80;;;9.40;99.90;;;;;;5026070;28;20053;-85
2024/01/22 06:11:27;;;;;;;4.25;1.60;;;9.50;99.90;;;;;;5004370;28;20124;-82
2024/01/22 06:13:53;;;;;;;2.00;1.08;;;9.60;99.90;;;;;;5029925;28;20049;-83
2024/01/22 06:16:20;;;;;;;4.72;1.40;;;9.70;99.90;;;;;;5022578;28;20049;-83
2024/01/22 06:18:46;;;;;;;2.83;1.13;;;9.70;99.90;;;;;;5026003;28;20355;-83
2024/01/22 06:21:17;;;;;;;10.85;1.33;;;9.80;99.90;;;;;;5026890;28;20045;-84
2024/01/22 06:23:46;;;;;;;6.15;1.63;;;9.80;99.90;;;;;;5025700;28;20049;-84
2024/01/22 06:26:12;;;;;;;7.53;1.45;;;9.80;99.90;;;;;;5007134;28;20062;-84
2024/01/22 06:28:38;;;;;;;4.40;1.33;;;9.90;99.90;;;;;;4993752;28;20053;-84
2024/01/22 06:31:04;;;;;;;2.72;1.25;;;9.90;99.90;;;;;;5012684;28;20487;-84
2024/01/22 06:33:30;;;;;;;6.70;1.40;;;9.80;99.90;;;;;;5023141;28;20044;-84
2024/01/22 06:35:57;;;;;;;4.80;1.67;;;10.10;99.90;;;;;;5031120;28;20041;-83
2024/01/22 06:38:23;;;;;;;5.65;1.30;;;9.70;99.90;;;;;;5016004;28;20045;-82
2024/01/22 06:40:48;;;;;;;5.47;1.17;;;9.80;99.90;;;;;;5032833;28;20580;-84
2024/01/22 06:43:15;;;;;;;6.30;1.30;;;9.70;99.90;;;;;;5032610;28;20049;-84
2024/01/22 06:45:41;;;;;;;5.47;1.50;;;9.70;99.90;;;;;;5029474;28;20383;-83
2024/01/22 06:48:08;;;;;;;4.28;1.35;;;9.80;99.90;;;;;;5002185;28;20161;-85
2024/01/22 06:50:38;;;;;;;4.47;1.33;;;9.80;99.90;;;;;;5028176;28;20057;-86
2024/01/22 06:53:06;;;;;;;6.15;1.75;;;9.80;99.90;;;;;;5033884;28;20077;-82
2024/01/22 06:55:32;;;;;;;5.63;1.40;;;9.80;99.90;;;;;;5030197;28;20084;-85
2024/01/22 06:57:58;;;;;;;7.20;1.70;;;9.80;99.90;;;;;;5014208;28;20053;-83
2024/01/22 07:00:24;;;;;;;6.93;1.48;;;9.90;99.90;;;;;;5032352;28;20485;-84
2024/01/22 07:02:49;;;;;;;9.98;1.40;;;9.90;99.90;;;;;;5029237;28;20041;-83
2024/01/22 07:05:18;;;;;;;6.30;1.38;;;9.90;99.90;;;;;;5015051;28;20057;-92
2024/01/22 07:07:46;;;;;;;7.45;1.50;;;9.90;99.90;;;;;;5007803;28;20056;-84
2024/01/22 07:10:13;;;;;;;6.90;1.80;;;9.90;99.90;;;;;;5023698;28;20084;-84
2024/01/22 07:12:42;;;;;;;9.00;2.08;;;9.90;99.90;;;;;;5020412;28;20181;-83
2024/01/22 07:15:12;;;;;;;9.45;2.13;;;9.80;99.90;;;;;;5010193;28;20057;-85
2024/01/22 07:17:39;;;;;;;11.05;2.30;;;9.80;99.90;;;;;;5029752;28;20525;-83
2024/01/22 07:20:08;;;;;;;13.98;3.05;;;9.80;99.90;;;;;;5020144;28;20500;-84
2024/01/22 07:22:36;;;;;;;13.63;2.10;;;9.90;99.90;;;;;;5023160;28;20127;-84
2024/01/22 07:25:03;;;;;;;13.70;2.53;;;9.90;99.90;;;;;;5024665;28;20058;-82
2024/01/22 07:27:29;;;;;;;12.57;3.20;;;9.80;99.90;;;;;;5029049;28;20176;-82
2024/01/22 07:29:55;;;;;;;16.35;3.80;;;9.90;99.90;;;;;;4999830;28;20037;-83
2024/01/22 07:32:20;;;;;;;14.88;4.57;;;9.80;99.90;;;;;;5005385;28;20056;-83
2024/01/22 07:34:46;;;;;;;16.00;5.10;;;10.10;99.90;;;;;;5012239;28;20042;-82
2024/01/22 07:37:12;;;;;;;18.40;4.57;;;9.80;99.90;;;;;;5023753;28;20041;-83
2024/01/22 07:39:38;;;;;;;16.40;4.57;;;9.80;99.90;;;;;;5028067;28;20127;-84
2024/01/22 07:42:03;;;;;;;19.00;3.97;;;9.80;99.90;;;;;;5030198;28;20041;-83
2024/01/22 07:44:29;;;;;;;22.27;4.55;;;9.80;99.90;;;;;;5012915;28;20046;-83
2024/01/22 07:46:55;;;;;;;18.17;4.32;;;9.80;99.90;;;;;;5027712;28;20072;-81
2024/01/22 07:49:22;;;;;;;30.70;5.15;;;9.80;99.90;;;;;;5028350;28;20067;-82
2024/01/22 07:51:48;;;;;;;14.82;3.75;;;10.10;99.90;;;;;;5013151;28;20561;-83
2024/01/22 07:54:14;;;;;;;17.90;3.63;;;9.80;99.90;;;;;;5025222;28;20125;-84
2024/01/22 07:56:40;;;;;;;17.45;4.00;;;9.80;99.90;;;;;;5012536;28;20146;-83
2024/01/22 07:59:05;;;;;;;18.95;3.67;;;9.80;99.90;;;;;;4997861;28;20556;-84
2024/01/22 08:01:35;;;;;;;21.45;4.45;;;10.30;99.90;;;;;;5032635;28;20662;-80
2024/01/22 08:04:03;;;;;;;16.00;3.95;;;9.80;99.90;;;;;;5032194;28;20042;-80
2024/01/22 08:06:29;;;;;;;16.10;4.03;;;9.80;99.90;;;;;;5023983;28;20049;-81
2024/01/22 08:08:56;;;;;;;22.35;4.43;;;9.80;99.90;;;;;;5024544;28;20049;-81
2024/01/22 08:11:21;;;;;;;27.80;4.75;;;9.80;99.90;;;;;;5032907;28;20131;-81
2024/01/22 08:13:47;;;;;;;22.38;4.25;;;9.80;99.90;;;;;;5030678;28;20116;-81
2024/01/22 08:16:13;;;;;;;23.70;4.30;;;9.90;99.90;;;;;;5020651;28;20045;-80
2024/01/22 08:18:38;;;;;;;20.05;4.47;;;9.70;99.90;;;;;;5028247;28;20048;-81
2024/01/22 08:21:04;;;;;;;30.60;5.18;;;9.70;99.90;;;;;;5016392;28;20484;-80
2024/01/22 08:23:30;;;;;;;27.50;5.95;;;9.70;99.90;;;;;;5027190;28;20068;-81
2024/01/22 08:25:55;;;;;;;25.92;4.88;;;9.70;99.90;;;;;;5033617;28;20053;-80
2024/01/22 08:28:21;;;;;;;31.17;6.65;;;9.80;99.90;;;;;;5018980;28;20044;-79
2024/01/22 08:30:47;;;;;;;31.73;5.97;;;9.70;99.90;;;;;;5030160;28;20132;-81
2024/01/22 08:33:13;;;;;;;34.88;6.13;;;10.00;99.90;;;;;;5025723;28;20124;-81
2024/01/22 08:35:38;;;;;;;38.50;5.88;;;9.60;99.90;;;;;;5020904;28;20116;-83
2024/01/22 08:38:04;;;;;;;24.27;4.63;;;9.60;99.90;;;;;;5032911;28;20050;-81
2024/01/22 08:40:30;;;;;;;29.23;4.60;;;10.00;99.90;;;;;;5013257;28;20050;-83
2024/01/22 08:42:59;;;;;;;21.92;4.28;;;9.60;99.90;;;;;;5004422;28;20067;-81
2024/01/22 08:45:25;;;;;;;24.17;4.38;;;9.60;99.90;;;;;;5016937;28;20505;-81
2024/01/22 08:47:51;;;;;;;24.75;3.75;;;9.50;99.90;;;;;;5023524;28;20136;-80
2024/01/22 08:50:19;;;;;;;20.85;3.38;;;9.50;99.90;;;;;;5027203;28;20132;-81
2024/01/22 08:52:49;;;;;;;30.55;4.85;;;9.40;99.90;;;;;;5008396;28;20041;-83
2024/01/22 08:55:16;;;;;;;21.27;4.32;;;9.40;99.90;;;;;;5031384;28;20125;-81
2024/01/22 08:57:42;;;;;;;34.97;5.53;;;9.40;99.90;;;;;;5024765;28;20041;-80
2024/01/22 09:00:11;;;;;;;34.65;5.97;;;9.40;99.90;;;;;;5020423;28;20491;-81
2024/01/22 09:02:41;;;;;;;32.67;5.40;;;9.30;99.90;;;;;;5032342;28;20049;-82
2024/01/22 09:05:10;;;;;;;40.28;6.45;;;9.30;99.90;;;;;;5022367;28;20080;-82
2024/01/22 09:07:40;;;;;;;43.88;6.57;;;9.30;99.90;;;;;;5026733;28;20128;-84
2024/01/22 09:10:07;;;;;;;46.60;7.32;;;9.20;99.90;;;;;;5015788;28;20076;-81
2024/01/22 09:12:34;;;;;;;33.45;6.65;;;9.30;99.90;;;;;;5025014;28;20053;-83
2024/01/22 09:15:01;;;;;;;39.25;7.38;;;9.30;99.90;;;;;;5019221;28;20128;-82
2024/01/22 09:17:26;;;;;;;35.85;7.22;;;9.30;99.90;;;;;;5006561;28;20061;-82
2024/01/22 09:19:52;;;;;;;36.35;7.28;;;9.30;99.90;;;;;;5030123;28;20046;-82
2024/01/22 09:22:19;;;;;;;29.98;7.43;;;9.20;99.90;;;;;;5025807;28;20071;-82
2024/01/22 09:24:45;;;;;;;41.60;6.25;;;9.20;99.90;;;;;;5019279;28;20057;-82
2024/01/22 09:27:11;;;;;;;40.53;6.95;;;9.20;99.90;;;;;;5032319;28;20506;-82
2024/01/22 09:29:37;;;;;;;54.92;8.23;;;9.10;99.90;;;;;;5014200;28;20123;-80
2024/01/22 09:32:03;;;;;;;43.22;7.72;;;9.10;99.90;;;;;;5015803;28;20045;-81
2024/01/22 09:34:29;;;;;;;40.60;7.28;;;9.20;99.90;;;;;;5024940;28;20103;-81
2024/01/22 09:36:54;;;;;;;35.58;7.38;;;9.20;99.90;;;;;;5031296;28;20057;-81
2024/01/22 09:39:20;;;;;;;41.88;7.22;;;9.20;99.90;;;;;;5035114;28;20381;-82
2024/01/22 09:41:46;;;;;;;32.53;7.30;;;9.20;99.90;;;;;;5007750;28;20382;-82
2024/01/22 09:44:13;;;;;;;50.97;7.97;;;9.20;99.90;;;;;;5035278;28;20096;-82
2024/01/22 09:46:39;;;;;;;50.55;7.28;;;9.20;99.90;;;;;;5013100;28;20463;-83
2024/01/22 09:49:09;;;;;;;49.20;7.22;;;9.30;99.90;;;;;;5025748;28;20045;-83
2024/01/22 09:51:35;;;;;;;47.17;8.45;;;9.70;99.90;;;;;;5035908;28;20110;-82
2024/01/22 09:54:09;;;;;;;37.97;6.70;;;9.20;99.90;;;;;;5034211;28;20668;-82
2024/01/22 09:56:36;;;;;;;33.50;6.18;;;9.20;99.90;;;;;;5032852;28;20049;-82
2024/01/22 09:59:12;;;;;;;45.72;8.32;;;9.10;99.90;;;;;;5019062;28;20049;-81
2024/01/22 10:01:39;;;;;;;38.35;6.90;;;9.10;99.90;;;;;;5035467;28;20057;-81
2024/01/22 10:04:05;;;;;;;33.03;5.70;;;9.10;99.90;;;;;;5031297;28;20057;-81
2024/01/22 10:06:33;;;;;;;39.40;7.18;;;9.10;99.90;;;;;;5018803;28;20073;-81
2024/01/22 10:08:59;;;;;;;42.15;7.28;;;9.10;99.90;;;;;;5035613;28;20038;-81
2024/01/22 10:11:25;;;;;;;45.58;6.38;;;9.10;99.90;;;;;;5033123;28;20489;-82
2024/01/22 10:13:51;;;;;;;44.28;7.82;;;9.10;99.90;;;;;;5035770;28;20033;-82
2024/01/22 10:16:17;;;;;;;49.42;7.97;;;9.20;99.90;;;;;;5034687;28;20538;-82
2024/01/22 10:18:58;;;;;;;42.15;7.53;;;9.10;99.90;;;;;;5022481;28;20049;-82
2024/01/22 10:21:24;;;;;;;35.88;6.63;;;9.10;99.90;;;;;;5035433;28;20439;-83
2024/01/22 10:23:57;;;;;;;34.72;5.93;;;9.10;99.90;;;;;;5035255;28;20146;-82
2024/01/22 10:26:23;;;;;;;34.20;5.65;;;9.10;99.90;;;;;;5036804;28;20118;-83
2024/01/22 10:28:49;;;;;;;30.20;5.40;;;9.00;99.90;;;;;;5035540;28;20049;-83
2024/01/22 10:31:14;;;;;;;38.10;6.25;;;9.10;99.90;;;;;;5035551;28;20128;-83
2024/01/22 10:33:40;;;;;;;34.55;5.30;;;9.00;99.90;;;;;;5035688;28;20112;-82
2024/01/22 10:36:17;;;;;;;33.33;5.63;;;8.90;99.90;;;;;;5035260;28;20446;-82
2024/01/22 10:38:48;;;;;;;24.60;4.57;;;8.90;99.90;;;;;;5034754;28;20172;-81
2024/01/22 10:41:22;;;;;;;27.75;5.60;;;8.90;99.90;;;;;;5035233;28;20049;-82
2024/01/22 10:43:49;;;;;;;25.95;4.50;;;9.10;99.90;;;;;;5034307;28;20052;-82
2024/01/22 10:46:17;;;;;;;23.90;3.95;;;9.10;99.90;;;;;;5035428;28;20506;-81
2024/01/22 10:48:44;;;;;;;33.70;5.38;;;9.00;99.90;;;;;;5035202;28;20049;-83
2024/01/22 10:51:10;;;;;;;37.25;5.35;;;9.10;99.90;;;;;;5034373;28;20049;-82
2024/01/22 10:53:37;;;;;;;30.33;4.97;;;9.30;99.90;;;;;;5034878;28;20072;-83
2024/01/22 10:56:21;;;;;;;28.63;5.10;;;9.30;99.90;;;;;;5035049;28;20058;-82
2024/01/22 10:58:49;;;;;;;33.33;6.82;;;9.20;99.90;;;;;;5035123;28;20088;-82
2024/01/22 11:01:17;;;;;;;35.92;6.28;;;9.20;99.90;;;;;;5034709;28;20053;-82
2024/01/22 11:03:47;;;;;;;36.53;6.72;;;9.30;99.90;;;;;;5034600;28;20094;-82
2024/01/22 11:06:34;;;;;;;46.05;6.75;;;9.30;99.90;;;;;;5035005;28;20474;-82
2024/01/22 11:09:01;;;;;;;35.80;5.80;;;9.30;99.90;;;;;;5033777;28;20451;-82
2024/01/22 11:11:28;;;;;;;43.80;6.32;;;9.40;99.90;;;;;;5034711;28;20053;-82
2024/01/22 11:13:59;;;;;;;36.95;5.88;;;9.40;99.90;;;;;;5035560;28;20107;-83
2024/01/22 11:16:25;;;;;;;35.03;5.97;;;9.40;99.90;;;;;;5035802;28;20050;-82
2024/01/22 11:18:58;;;;;;;32.30;7.70;;;9.50;99.90;;;;;;5034768;28;20095;-82
2024/01/22 11:21:30;;;;;;;30.83;6.68;;;9.50;99.90;;;;;;5034278;28;20049;-82
2024/01/22 11:24:17;;;;;;;35.88;6.47;;;9.50;99.90;;;;;;5033774;28;20046;-82
2024/01/22 11:27:04;;;;;;;31.00;5.80;;;9.60;99.90;;;;;;5034567;28;20049;-82
2024/01/22 11:29:32;;;;;;;28.90;5.32;;;9.60;99.90;;;;;;5034314;28;20133;-81
2024/01/22 11:32:26;;;;;;;26.10;5.20;;;9.70;99.90;;;;;;5034368;28;20084;-82
2024/01/22 11:34:57;;;;;;;20.15;4.82;;;9.70;99.90;;;;;;5015595;28;20388;-82
2024/01/22 11:37:34;;;;;;;24.83;5.93;;;9.80;99.90;;;;;;5015602;28;20041;-82
2024/01/22 11:40:00;;;;;;;27.23;5.43;;;9.80;99.90;;;;;;5014568;28;20044;-82
2024/01/22 11:42:28;;;;;;;21.33;4.95;;;10.00;99.90;;;;;;5015140;28;20034;-82
2024/01/22 11:44:54;;;;;;;31.73;5.38;;;9.90;99.90;;;;;;4998027;28;20398;-82
2024/01/22 11:47:22;;;;;;;32.63;4.78;;;10.30;99.90;;;;;;5014091;28;20551;-83
2024/01/22 11:49:48;;;;;;;35.58;5.18;;;10.00;99.90;;;;;;4998001;28;20133;-82
2024/01/22 11:52:23;;;;;;;24.08;4.25;;;10.10;99.90;;;;;;5022406;28;20050;-83
2024/01/22 11:54:52;;;;;;;31.30;6.35;;;10.20;99.90;;;;;;5033524;28;20555;-82
2024/01/22 11:57:18;;;;;;;33.92;8.55;;;10.20;99.90;;;;;;5033659;28;20049;-82
2024/01/22 12:00:11;;;;;;;28.13;5.53;;;10.20;99.90;;;;;;5033800;28;20124;-82
2024/01/22 12:02:44;;;;;;;24.27;5.18;;;10.20;99.90;;;;;;5030969;28;20061;-82
2024/01/22 12:05:12;;;;;;;23.98;4.93;;;10.20;99.90;;;;;;5033857;28;20045;-82
2024/01/22 12:07:43;;;;;;;29.67;6.18;;;10.20;99.90;;;;;;5033476;28;20057;-82
2024/01/22 12:10:29;;;;;;;28.80;6.25;;;10.20;99.90;;;;;;5033725;28;20053;-82
2024/01/22 12:12:56;;;;;;;22.90;6.20;;;10.20;99.90;;;;;;5033121;28;20487;-82
2024/01/22 12:15:24;;;;;;;23.95;3.90;;;10.20;99.90;;;;;;5032936;28;20704;-81
2024/01/22 12:17:50;;;;;;;23.58;4.78;;;10.30;99.90;;;;;;5034434;28;20052;-82
2024/01/22 12:20:17;;;;;;;24.55;5.30;;;10.20;99.90;;;;;;5033478;28;20045;-82
2024/01/22 12:22:43;;;;;;;24.08;6.80;;;10.30;99.90;;;;;;5032411;28;20536;-82
2024/01/22 12:25:10;;;;;;;23.38;6.30;;;10.30;99.90;;;;;;5032285;28;20054;-81
2024/01/22 12:27:36;;;;;;;28.48;8.07;;;10.20;99.90;;;;;;5021746;28;20061;-81
2024/01/22 12:30:14;;;;;;;21.55;4.60;;;10.20;99.90;;;;;;5013114;28;20148;-82
2024/01/22 12:32:49;;;;;;;21.23;3.47;;;10.30;99.90;;;;;;5013523;28;20041;-82
2024/01/22 12:35:15;;;;;;;21.40;5.72;;;10.30;99.90;;;;;;5018259;28;20049;-82
2024/01/22 12:37:40;;;;;;;16.67;3.63;;;10.30;99.90;;;;;;5032750;28;20578;-82
2024/01/22 12:40:14;;;;;;;22.60;5.32;;;10.30;99.90;;;;;;5033097;28;20095;-81
2024/01/22 12:42:50;;;;;;;16.10;3.97;;;10.20;99.90;;;;;;5032650;28;20056;-81
2024/01/22 12:45:21;;;;;;;25.13;5.07;;;10.10;99.90;;;;;;5032789;28;20476;-81
2024/01/22 12:47:48;;;;;;;18.10;4.32;;;10.00;99.90;;;;;;5032957;28;20055;-81
2024/01/22 12:50:15;;;;;;;19.25;5.10;;;10.10;99.90;;;;;;5032813;28;20442;-82
2024/01/22 12:52:41;;;;;;;19.77;4.22;;;10.10;99.90;;;;;;5032719;28;20574;-83